Time;durP1;ratioP1;P1;durP2;ratioP2;P2;SDS_P1;SDS_P2;PMS_P1;PMS_P2;Temp;Humidity;BMP_temperature;BMP_pressure;BME280_temperature;BME280_humidity;BME280_pressure;Samples;Min_cycle;Max_cycle;Signal;HPM_P1;HPM_P2
2022/04/27 00:01:17;;;;;;;3.70;1.52;;;19.30;43.00;18.50;101912.00;;;;5035344;28;20041;-70
2022/04/27 00:04:04;;;;;;;1.73;1.20;;;19.30;43.00;18.40;101898.00;;;;5032710;28;20442;-71
2022/04/27 00:06:50;;;;;;;1.95;1.30;;;19.20;42.90;18.40;101903.00;;;;5033572;28;20045;-70
2022/04/27 00:09:36;;;;;;;2.95;1.50;;;19.20;43.00;18.40;101900.00;;;;5025201;28;20120;-70
2022/04/27 00:12:22;;;;;;;2.55;1.38;;;19.20;42.90;18.40;101904.00;;;;5017224;28;20470;-70
2022/04/27 00:15:08;;;;;;;2.45;1.48;;;19.30;43.00;18.40;101900.00;;;;5035732;28;20033;-70
2022/04/27 00:17:54;;;;;;;1.88;1.42;;;19.20;43.00;18.40;101908.00;;;;5030157;28;20138;-71
2022/04/27 00:20:41;;;;;;;1.40;1.20;;;19.20;43.00;18.40;101907.00;;;;5030291;28;20151;-71
2022/04/27 00:23:27;;;;;;;1.90;1.50;;;19.10;43.00;18.40;101900.00;;;;5015424;28;20452;-70
2022/04/27 00:26:13;;;;;;;2.83;1.60;;;19.20;43.00;18.40;101908.00;;;;5030507;28;20073;-71
2022/04/27 00:28:59;;;;;;;1.90;1.52;;;19.20;43.10;18.40;101905.00;;;;5030480;28;20044;-70
2022/04/27 00:31:46;;;;;;;1.55;1.38;;;19.10;43.00;18.30;101899.00;;;;5029013;28;20042;-70
2022/04/27 00:34:32;;;;;;;2.58;1.55;;;19.10;43.10;18.30;101893.00;;;;5037245;28;20463;-70
2022/04/27 00:37:21;;;;;;;3.03;1.40;;;19.10;43.00;18.30;101896.00;;;;5031366;28;20045;-70
2022/04/27 00:40:07;;;;;;;2.40;1.35;;;19.10;43.10;18.30;101900.00;;;;5031451;28;20111;-70
2022/04/27 00:42:53;;;;;;;2.80;1.50;;;19.10;43.10;18.30;101905.00;;;;5030228;28;20049;-70
2022/04/27 00:45:39;;;;;;;2.42;1.25;;;19.00;43.00;18.30;101907.00;;;;5018581;28;20049;-70
2022/04/27 00:48:25;;;;;;;2.17;1.35;;;19.10;43.10;18.30;101908.00;;;;5032214;28;20049;-70
2022/04/27 00:51:16;;;;;;;1.90;1.38;;;19.10;43.10;18.30;101913.00;;;;5028885;28;20118;-71
2022/04/27 00:54:02;;;;;;;3.78;1.38;;;19.10;43.10;18.30;101909.00;;;;5018317;28;20515;-70
2022/04/27 00:56:49;;;;;;;3.03;1.48;;;19.10;43.10;18.30;101916.00;;;;5006894;28;20064;-70
2022/04/27 00:59:35;;;;;;;1.80;1.20;;;19.10;43.10;18.30;101911.00;;;;5039325;28;20087;-71
2022/04/27 01:02:21;;;;;;;2.45;1.20;;;19.00;43.10;18.30;101918.00;;;;5041327;28;20552;-70
2022/04/27 01:05:09;;;;;;;2.10;1.30;;;19.00;43.10;18.20;101925.00;;;;5033058;28;20045;-70
2022/04/27 01:08:00;;;;;;;2.65;1.60;;;19.00;43.10;18.20;101919.00;;;;5021203;28;20045;-70
2022/04/27 01:10:46;;;;;;;5.20;1.67;;;19.00;43.10;18.20;101923.00;;;;5035185;28;20047;-70
2022/04/27 01:13:32;;;;;;;3.60;1.85;;;19.00;43.10;18.20;101923.00;;;;5021237;28;20045;-70
2022/04/27 01:16:18;;;;;;;4.47;1.48;;;19.00;43.10;18.20;101924.00;;;;5030034;28;20037;-70
2022/04/27 01:19:05;;;;;;;2.42;1.42;;;19.00;43.10;18.20;101921.00;;;;5035478;28;20383;-70
2022/04/27 01:21:52;;;;;;;3.75;1.30;;;19.00;43.00;18.20;101924.00;;;;5036075;28;20422;-70
2022/04/27 01:24:38;;;;;;;1.70;1.40;;;19.00;43.10;18.20;101925.00;;;;5037317;28;20049;-71
2022/04/27 01:27:24;;;;;;;3.05;1.52;;;18.90;43.10;18.20;101928.00;;;;5037985;28;20064;-70
2022/04/27 01:30:10;;;;;;;1.55;1.30;;;19.00;43.20;18.20;101932.00;;;;5036705;28;20037;-70
2022/04/27 01:32:56;;;;;;;2.03;1.70;;;18.90;43.20;18.10;101942.00;;;;5035121;28;20045;-70
2022/04/27 01:35:42;;;;;;;3.55;1.50;;;18.90;43.20;18.10;101932.00;;;;5040983;28;20048;-70
2022/04/27 01:38:36;;;;;;;1.95;1.23;;;19.00;43.30;18.10;101931.00;;;;5024204;28;20045;-71
2022/04/27 01:41:22;;;;;;;2.15;1.58;;;18.80;43.30;18.10;101939.00;;;;5024364;28;20072;-70
2022/04/27 01:44:08;;;;;;;2.67;1.27;;;18.80;44.00;18.10;101941.00;;;;5035043;28;20089;-70
2022/04/27 01:46:54;;;;;;;2.55;1.52;;;18.90;43.20;18.10;101938.00;;;;5033346;28;20316;-70
2022/04/27 01:49:40;;;;;;;3.10;1.60;;;18.90;43.20;18.10;101941.00;;;;5033987;28;20045;-70
2022/04/27 01:55:30;;;;;;;3.00;1.45;;;18.90;43.20;18.10;101946.00;;;;5036468;28;20044;-70
2022/04/27 01:58:17;;;;;;;2.97;1.73;;;18.90;43.20;18.10;101949.00;;;;5036376;28;20048;-70
2022/04/27 02:01:03;;;;;;;3.80;1.60;;;18.80;43.20;18.00;101949.00;;;;5035156;28;20045;-70
2022/04/27 02:03:51;;;;;;;1.38;1.20;;;18.80;43.10;18.10;101949.00;;;;5020948;28;20033;-70
2022/04/27 02:06:37;;;;;;;2.13;1.35;;;18.80;43.10;18.00;101948.00;;;;5031450;28;20044;-70
2022/04/27 02:09:23;;;;;;;4.22;1.75;;;18.80;43.20;18.00;101950.00;;;;5029359;28;20129;-70
2022/04/27 02:12:09;;;;;;;3.17;1.50;;;18.80;43.20;18.00;101959.00;;;;5034603;28;20041;-71
2022/04/27 02:14:55;;;;;;;2.00;1.58;;;18.80;43.30;18.00;101964.00;;;;5033917;28;20034;-71
2022/04/27 02:17:41;;;;;;;2.65;1.50;;;18.80;43.30;18.00;101969.00;;;;5037148;28;20395;-70
2022/04/27 02:20:28;;;;;;;1.90;1.50;;;18.80;43.20;18.00;101967.00;;;;5036442;28;20033;-71
2022/04/27 02:23:19;;;;;;;1.83;1.55;;;18.80;43.20;18.00;101970.00;;;;5015151;28;20644;-70
2022/04/27 02:26:05;;;;;;;2.25;1.33;;;18.80;43.20;18.00;101977.00;;;;5036827;28;20052;-70
2022/04/27 02:28:51;;;;;;;2.00;1.50;;;18.80;43.10;18.00;101976.00;;;;5031667;28;20037;-70
2022/04/27 02:31:37;;;;;;;2.38;1.60;;;18.80;43.20;18.00;101976.00;;;;5035973;28;20122;-70
2022/04/27 02:34:23;;;;;;;2.78;1.42;;;18.70;43.10;18.00;101979.00;;;;5036691;28;20041;-70
2022/04/27 02:37:10;;;;;;;2.45;1.65;;;18.70;43.20;18.00;101983.00;;;;5033053;28;20093;-70
2022/04/27 02:39:56;;;;;;;3.03;1.88;;;18.70;43.10;17.90;101983.00;;;;5024441;28;20036;-71
2022/04/27 02:42:42;;;;;;;2.65;1.67;;;18.70;43.10;17.90;101978.00;;;;5030776;28;20291;-70
2022/04/27 02:45:28;;;;;;;3.17;1.70;;;18.70;43.20;17.90;101973.00;;;;5037302;28;20040;-70
2022/04/27 02:48:15;;;;;;;3.50;1.65;;;18.70;43.20;17.90;101983.00;;;;5034836;28;20041;-71
2022/04/27 02:54:05;;;;;;;4.57;1.67;;;18.70;43.20;17.90;101986.00;;;;5039551;28;20049;-71
2022/04/27 02:56:51;;;;;;;2.22;1.20;;;18.70;43.10;17.90;101990.00;;;;5029902;28;20398;-71
2022/04/27 02:59:37;;;;;;;1.52;1.40;;;18.70;43.20;17.90;101987.00;;;;5021117;28;20048;-70
2022/04/27 03:02:23;;;;;;;2.42;1.50;;;18.70;43.20;17.90;101994.00;;;;5033644;28;20036;-70
2022/04/27 03:05:09;;;;;;;1.67;1.45;;;18.70;43.20;17.90;101989.00;;;;5031250;28;20041;-70
2022/04/27 03:07:55;;;;;;;2.10;1.70;;;18.60;43.10;17.90;101997.00;;;;5037097;28;20053;-71
2022/04/27 03:10:41;;;;;;;1.75;1.42;;;18.60;43.10;17.80;102003.00;;;;5030515;28;20033;-70
2022/04/27 03:13:27;;;;;;;1.70;1.60;;;18.60;43.10;17.80;101993.00;;;;5034461;28;20037;-71
2022/04/27 03:16:13;;;;;;;2.22;1.40;;;18.60;43.00;17.80;101998.00;;;;5032685;28;20050;-70
2022/04/27 03:19:00;;;;;;;1.67;1.15;;;18.60;43.10;17.80;101997.00;;;;5020680;28;20099;-71
2022/04/27 03:21:47;;;;;;;1.50;1.40;;;18.50;43.10;17.80;101991.00;;;;5040085;28;20044;-70
2022/04/27 03:24:33;;;;;;;4.18;1.70;;;18.60;43.20;17.80;102005.00;;;;5015320;28;20037;-70
2022/04/27 03:27:19;;;;;;;2.17;1.45;;;18.60;43.10;17.80;101999.00;;;;5040789;28;20053;-70
2022/04/27 03:30:06;;;;;;;1.90;1.38;;;18.60;43.10;17.80;102002.00;;;;5035456;28;20040;-70
2022/04/27 03:32:54;;;;;;;2.28;1.67;;;18.50;43.10;17.80;102002.00;;;;5034380;28;20372;-70
2022/04/27 03:35:40;;;;;;;;;;;18.50;43.10;17.70;101998.00;;;;5046512;28;20356;-70
2022/04/27 03:38:26;;;;;;;2.47;1.55;;;18.60;43.20;17.70;102007.00;;;;5032295;28;19939;-70
2022/04/27 03:41:14;;;;;;;1.70;1.30;;;18.60;43.10;17.70;102012.00;;;;5037141;28;20340;-70
2022/04/27 03:44:00;;;;;;;1.98;1.33;;;18.50;43.00;17.70;102015.00;;;;5029319;28;20620;-70
2022/04/27 03:46:46;;;;;;;4.13;1.58;;;18.60;43.00;17.70;102018.00;;;;5032842;28;20051;-70
2022/04/27 03:49:32;;;;;;;3.15;1.58;;;18.60;43.10;17.70;102016.00;;;;5034611;28;20130;-70
2022/04/27 03:52:18;;;;;;;2.97;1.73;;;18.50;43.10;17.70;102025.00;;;;5034786;28;20052;-70
2022/04/27 03:55:05;;;;;;;3.72;1.73;;;18.50;43.10;17.70;102026.00;;;;5036485;28;20064;-70
2022/04/27 03:57:51;;;;;;;4.47;1.90;;;18.50;43.10;17.70;102028.00;;;;5018116;28;20045;-70
2022/04/27 04:00:37;;;;;;;2.65;1.50;;;18.50;43.10;17.70;102033.00;;;;5039040;28;20482;-70
2022/04/27 04:03:23;;;;;;;2.42;1.67;;;18.40;43.10;17.70;102023.00;;;;5026730;28;20497;-70
2022/04/27 04:06:09;;;;;;;3.50;1.60;;;18.50;43.80;17.70;102031.00;;;;5029268;28;20037;-71
2022/04/27 04:08:55;;;;;;;1.48;1.38;;;18.40;43.10;17.60;102029.00;;;;5035536;28;20414;-70
2022/04/27 04:11:41;;;;;;;3.00;1.70;;;18.40;43.00;17.60;102031.00;;;;5035847;28;20273;-71
2022/04/27 04:14:27;;;;;;;1.63;1.38;;;18.40;43.00;17.60;102037.00;;;;5029059;28;20122;-71
2022/04/27 04:17:13;;;;;;;3.20;1.50;;;18.50;43.10;17.60;102042.00;;;;5031368;28;20534;-70
2022/04/27 04:19:59;;;;;;;2.30;1.50;;;18.40;43.00;17.60;102044.00;;;;5032043;28;20107;-70
2022/04/27 04:22:46;;;;;;;3.03;1.60;;;18.40;43.00;17.60;102043.00;;;;5033258;28;20041;-70
2022/04/27 04:28:37;;;;;;;5.35;1.60;;;18.40;43.00;17.60;102041.00;;;;5029341;28;20083;-70
2022/04/27 04:31:23;;;;;;;2.63;1.63;;;18.40;43.00;17.60;102052.00;;;;5014122;28;20038;-70
2022/04/27 04:34:09;;;;;;;2.53;1.90;;;18.40;43.00;17.60;102052.00;;;;5035469;28;20172;-70
2022/04/27 04:36:55;;;;;;;2.97;1.45;;;18.40;43.10;17.60;102053.00;;;;5036206;28;20045;-70
2022/04/27 04:39:41;;;;;;;2.63;1.67;;;18.40;43.10;17.50;102049.00;;;;5033215;28;20131;-70
2022/04/27 04:42:27;;;;;;;3.65;2.03;;;18.30;43.10;17.50;102049.00;;;;5042007;28;20505;-70
2022/04/27 04:45:13;;;;;;;1.42;1.30;;;18.30;43.00;17.50;102063.00;;;;5019253;28;20033;-70
2022/04/27 04:47:59;;;;;;;2.08;1.63;;;18.30;43.00;17.50;102057.00;;;;5021901;28;20064;-71
2022/04/27 04:50:45;;;;;;;2.15;1.58;;;18.30;43.00;17.50;102063.00;;;;5038893;28;20029;-70
2022/04/27 04:53:31;;;;;;;2.58;1.55;;;18.30;43.00;17.50;102069.00;;;;5032182;28;20060;-70
2022/04/27 04:56:18;;;;;;;2.10;1.73;;;18.30;43.00;17.50;102077.00;;;;5042296;28;20049;-70
2022/04/27 04:59:04;;;;;;;3.00;1.88;;;18.30;43.00;17.50;102078.00;;;;5033721;28;20473;-71
2022/04/27 05:01:50;;;;;;;3.92;1.60;;;18.30;42.90;17.50;102090.00;;;;5035730;28;20605;-71
2022/04/27 05:04:36;;;;;;;2.60;1.55;;;18.30;42.90;17.50;102085.00;;;;5038570;28;20052;-70
2022/04/27 05:07:22;;;;;;;2.53;1.75;;;18.30;43.00;17.50;102090.00;;;;5038073;28;20049;-71
2022/04/27 05:10:08;;;;;;;1.77;1.67;;;18.30;42.90;17.50;102079.00;;;;5040068;28;20094;-71
2022/04/27 05:12:54;;;;;;;2.85;1.85;;;18.30;42.90;17.50;102097.00;;;;5036280;28;20466;-70
2022/04/27 05:15:41;;;;;;;2.08;1.80;;;18.30;42.90;17.50;102103.00;;;;5041099;28;20048;-70
2022/04/27 05:18:27;;;;;;;2.47;2.15;;;18.30;42.90;17.50;102100.00;;;;5035652;28;20044;-70
2022/04/27 05:21:13;;;;;;;3.05;2.15;;;18.30;42.90;17.50;102097.00;;;;5037954;28;20393;-70
2022/04/27 05:23:59;;;;;;;3.42;1.85;;;18.20;42.80;17.50;102111.00;;;;5034093;28;20045;-70
2022/04/27 05:26:45;;;;;;;2.40;1.80;;;18.30;42.90;17.50;102104.00;;;;5042211;28;20448;-70
2022/04/27 05:32:43;;;;;;;2.55;1.80;;;18.30;42.80;17.40;102119.00;;;;5038278;28;20103;-70
2022/04/27 05:35:29;;;;;;;3.05;1.70;;;18.30;42.80;17.50;102117.00;;;;5022768;28;20310;-70
2022/04/27 05:38:15;;;;;;;2.40;2.00;;;18.30;42.80;17.50;102125.00;;;;5034107;28;20410;-70
2022/04/27 05:41:01;;;;;;;2.22;1.95;;;18.20;42.80;17.40;102120.00;;;;5032466;28;20041;-70
2022/04/27 05:43:47;;;;;;;2.63;1.85;;;18.30;42.80;17.40;102136.00;;;;5020577;28;20041;-70
2022/04/27 05:46:36;;;;;;;4.68;1.85;;;18.30;42.80;17.50;102128.00;;;;5032976;28;20063;-70
2022/04/27 05:49:22;;;;;;;3.63;1.80;;;18.30;42.80;17.40;102134.00;;;;5033467;28;20049;-70
2022/04/27 05:52:08;;;;;;;2.30;1.45;;;18.30;42.80;17.40;102135.00;;;;5036430;28;20045;-70
2022/04/27 05:54:55;;;;;;;2.17;1.80;;;18.30;42.80;17.40;102138.00;;;;5032120;28;20034;-70
2022/04/27 05:57:41;;;;;;;2.08;1.52;;;18.20;42.80;17.50;102138.00;;;;5019804;28;20064;-70
2022/04/27 06:00:27;;;;;;;4.55;2.03;;;18.30;42.80;17.50;102152.00;;;;5029305;28;20111;-71
2022/04/27 06:03:13;;;;;;;4.10;1.75;;;18.30;42.80;17.50;102146.00;;;;5031905;28;20064;-71
2022/04/27 06:05:59;;;;;;;2.03;1.80;;;18.30;42.80;17.50;102157.00;;;;5029915;28;20041;-70
2022/04/27 06:08:45;;;;;;;3.63;2.10;;;18.30;42.80;17.50;102155.00;;;;5029330;28;20462;-71
2022/04/27 06:11:31;;;;;;;2.67;1.98;;;18.40;42.80;17.50;102156.00;;;;5026932;28;20099;-71
2022/04/27 06:14:17;;;;;;;3.67;2.00;;;18.30;42.80;17.50;102153.00;;;;5037130;28;20428;-70
2022/04/27 06:17:03;;;;;;;5.00;2.33;;;18.30;42.80;17.50;102164.00;;;;5039627;28;20158;-70
2022/04/27 06:19:49;;;;;;;3.47;2.17;;;18.40;42.80;17.50;102157.00;;;;5033326;28;20044;-70
2022/04/27 06:22:35;;;;;;;2.05;1.80;;;18.40;42.80;17.50;102163.00;;;;5034104;28;20041;-70
2022/04/27 06:25:22;;;;;;;3.42;1.90;;;18.40;42.80;17.60;102151.00;;;;5032947;28;20555;-70
2022/04/27 06:28:08;;;;;;;2.30;2.10;;;18.40;42.70;17.60;102156.00;;;;5034962;28;20549;-70
2022/04/27 06:30:54;;;;;;;3.40;1.88;;;18.40;42.70;17.60;102166.00;;;;5032261;28;20260;-70
2022/04/27 06:33:40;;;;;;;2.33;2.00;;;18.40;42.70;17.60;102166.00;;;;5019693;28;20041;-70
2022/04/27 06:36:26;;;;;;;4.40;2.25;;;18.40;42.70;17.60;102163.00;;;;5035404;28;20041;-70
2022/04/27 06:39:14;;;;;;;4.15;2.45;;;18.50;42.70;17.60;102169.00;;;;5033572;28;20056;-70
2022/04/27 06:42:01;;;;;;;4.75;2.08;;;18.40;42.60;17.60;102162.00;;;;5035021;28;20091;-70
2022/04/27 06:44:48;;;;;;;3.95;1.92;;;18.50;42.70;17.60;102159.00;;;;5034799;28;20410;-70
2022/04/27 06:47:34;;;;;;;5.00;1.90;;;18.50;42.70;17.60;102169.00;;;;5021632;28;20414;-70
2022/04/27 06:50:20;;;;;;;4.10;1.88;;;18.60;42.70;17.60;102169.00;;;;5031863;28;20049;-70
2022/04/27 06:53:06;;;;;;;2.60;1.98;;;18.50;42.60;17.70;102175.00;;;;5032260;28;20505;-70
2022/04/27 06:55:52;;;;;;;3.08;2.03;;;18.60;42.60;17.70;102187.00;;;;5031738;28;20041;-70
2022/04/27 06:58:38;;;;;;;3.60;2.35;;;18.60;42.60;17.70;102187.00;;;;5029852;28;20516;-71
2022/04/27 07:01:24;;;;;;;2.92;2.00;;;18.60;42.60;17.70;102190.00;;;;5030537;28;20041;-71
2022/04/27 07:04:11;;;;;;;3.97;1.80;;;18.50;42.60;17.70;102186.00;;;;4999820;28;20536;-71
2022/04/27 07:06:57;;;;;;;3.08;1.75;;;18.60;42.60;17.70;102197.00;;;;5039786;28;20040;-71
2022/04/27 07:09:43;;;;;;;3.58;1.58;;;18.60;42.60;17.70;102191.00;;;;5020057;28;20045;-71
2022/04/27 07:12:29;;;;;;;3.47;1.90;;;18.70;42.70;17.70;102191.00;;;;5031723;28;20184;-71
2022/04/27 07:15:15;;;;;;;3.55;1.70;;;18.70;42.70;17.70;102196.00;;;;5020531;28;20483;-71
2022/04/27 07:18:01;;;;;;;2.40;1.50;;;18.70;42.60;17.80;102196.00;;;;5015818;28;20474;-71
2022/04/27 07:20:47;;;;;;;5.38;2.10;;;18.80;42.70;17.80;102201.00;;;;5017290;28;20037;-71
2022/04/27 07:23:33;;;;;;;3.38;1.73;;;18.70;42.60;17.80;102195.00;;;;5017968;28;20037;-71
2022/04/27 07:26:19;;;;;;;2.50;1.60;;;18.70;43.30;17.80;102192.00;;;;5035501;28;20041;-71
2022/04/27 07:29:08;;;;;;;5.20;2.30;;;18.80;42.60;17.80;102192.00;;;;5036473;28;20041;-71
2022/04/27 07:31:54;;;;;;;4.25;1.70;;;18.70;42.60;17.80;102203.00;;;;5028187;28;20573;-71
2022/04/27 07:34:40;;;;;;;3.20;2.13;;;18.80;42.60;17.80;102201.00;;;;5020150;28;20032;-71
2022/04/27 07:37:26;;;;;;;2.30;1.55;;;18.80;42.60;17.80;102199.00;;;;5033953;28;20094;-71
2022/04/27 07:40:12;;;;;;;2.00;1.30;;;18.80;42.60;17.80;102194.00;;;;5036931;28;20483;-72
2022/04/27 07:42:59;;;;;;;4.05;1.98;;;18.80;42.60;17.80;102208.00;;;;5022491;28;20119;-72
2022/04/27 07:45:45;;;;;;;5.28;1.65;;;18.80;42.60;17.90;102195.00;;;;5032080;28;20033;-71
2022/04/27 07:48:34;;;;;;;2.70;1.60;;;18.80;42.60;17.90;102205.00;;;;5031805;28;20115;-71
2022/04/27 07:51:20;;;;;;;2.47;1.40;;;18.80;42.60;17.90;102212.00;;;;5037117;28;20108;-71
2022/04/27 07:54:06;;;;;;;2.75;1.67;;;18.90;42.60;17.90;102211.00;;;;5029106;28;20033;-71
2022/04/27 07:56:53;;;;;;;2.85;1.55;;;18.90;42.60;17.90;102206.00;;;;5036529;28;20091;-71
2022/04/27 07:59:39;;;;;;;3.92;1.55;;;18.80;42.50;17.90;102214.00;;;;5021174;28;20048;-70
2022/04/27 08:02:25;;;;;;;1.92;1.15;;;18.90;42.50;17.90;102215.00;;;;5020291;28;20045;-71
2022/04/27 08:05:11;;;;;;;1.90;1.40;;;19.00;42.50;17.90;102210.00;;;;5042281;28;20104;-70
2022/04/27 08:07:57;;;;;;;2.58;1.30;;;18.90;42.50;17.90;102214.00;;;;5036155;28;20049;-71
2022/04/27 08:10:43;;;;;;;2.60;1.58;;;19.00;42.60;17.90;102218.00;;;;5044086;28;20034;-70
2022/04/27 08:13:29;;;;;;;3.13;1.00;;;18.90;42.40;17.90;102221.00;;;;5031722;28;20026;-71
2022/04/27 08:16:15;;;;;;;3.08;1.08;;;18.90;42.40;17.90;102223.00;;;;5035739;28;20099;-70
2022/04/27 08:19:01;;;;;;;3.90;1.38;;;18.90;42.40;17.90;102221.00;;;;5026310;28;20407;-71
2022/04/27 08:21:48;;;;;;;1.75;1.38;;;18.90;42.40;17.90;102239.00;;;;5031096;28;20098;-70
2022/04/27 08:24:40;;;;;;;2.53;1.27;;;18.90;42.40;17.90;102230.00;;;;5037849;28;20496;-71
2022/04/27 08:27:26;;;;;;;3.72;1.08;;;18.90;42.40;17.90;102231.00;;;;5040348;28;20039;-71
2022/04/27 08:30:12;;;;;;;2.38;1.40;;;18.90;42.40;18.00;102244.00;;;;5036107;28;20481;-70
2022/04/27 08:33:00;;;;;;;2.78;1.15;;;19.00;42.40;18.00;102244.00;;;;5038916;28;20446;-70
2022/04/27 08:35:46;;;;;;;;;;;18.90;42.30;17.90;102235.00;;;;5032926;28;20136;-71
2022/04/27 08:38:34;;;;;;;1.35;1.25;;;19.00;42.50;17.90;102250.00;;;;5030939;28;20404;-70
2022/04/27 08:41:20;;;;;;;2.00;1.20;;;19.00;42.20;17.90;102249.00;;;;5043887;28;20040;-71
2022/04/27 08:44:07;;;;;;;2.47;1.27;;;19.00;42.20;18.00;102248.00;;;;5015668;28;20039;-71
2022/04/27 08:46:53;;;;;;;2.28;1.20;;;19.00;42.20;18.00;102241.00;;;;5039860;28;20400;-71
2022/04/27 08:49:39;;;;;;;3.10;1.10;;;19.00;42.20;18.00;102254.00;;;;5012484;28;20450;-70
2022/04/27 08:52:25;;;;;;;2.47;1.10;;;19.00;42.20;18.00;102248.00;;;;5037689;28;20543;-71
2022/04/27 08:55:11;;;;;;;1.92;1.10;;;19.10;42.20;18.00;102248.00;;;;5025253;28;20033;-71
2022/04/27 08:58:15;;;;;;;2.90;1.10;;;19.00;42.20;18.00;102247.00;;;;5038501;28;20496;-71
2022/04/27 09:01:01;;;;;;;2.00;1.13;;;19.00;42.20;18.00;102249.00;;;;5041904;28;20041;-71
2022/04/27 09:03:47;;;;;;;2.50;1.08;;;19.00;42.20;18.00;102254.00;;;;5037833;28;20097;-71
2022/04/27 09:06:38;;;;;;;1.35;0.90;;;19.00;42.20;18.00;102252.00;;;;5040601;28;20037;-72
2022/04/27 09:09:33;;;;;;;1.25;0.93;;;19.00;42.10;18.00;102261.00;;;;5021431;28;20426;-71
2022/04/27 09:12:19;;;;;;;2.88;1.10;;;19.00;42.10;18.00;102252.00;;;;5044591;28;20406;-71
2022/04/27 09:15:07;;;;;;;2.80;1.17;;;19.00;42.10;18.00;102249.00;;;;5038196;28;20041;-70
2022/04/27 09:21:01;;;;;;;3.20;0.95;;;18.90;42.20;18.00;102259.00;;;;5044555;28;19962;-70
2022/04/27 09:23:48;;;;;;;1.70;1.10;;;19.10;42.00;18.00;102249.00;;;;5025927;28;20319;-70
2022/04/27 09:26:34;;;;;;;3.83;1.08;;;19.10;42.00;18.00;102252.00;;;;5021875;28;20047;-70
2022/04/27 09:29:24;;;;;;;3.30;1.42;;;19.10;42.00;18.00;102254.00;;;;5040985;28;20049;-70
2022/04/27 09:32:15;;;;;;;1.80;0.93;;;19.10;41.90;18.00;102256.00;;;;5019514;28;20383;-70
2022/04/27 09:35:03;;;;;;;2.17;1.10;;;19.10;41.90;18.00;102256.00;;;;5026283;28;20503;-70
2022/04/27 09:37:49;;;;;;;2.78;0.88;;;19.00;41.90;18.00;102252.00;;;;5029788;28;20029;-71
2022/04/27 09:40:56;;;;;;;5.07;1.10;;;19.00;41.80;18.00;102251.00;;;;5032024;28;20033;-70
2022/04/27 09:43:47;;;;;;;2.35;1.08;;;19.00;41.80;18.00;102247.00;;;;5023484;28;20045;-70
2022/04/27 09:46:40;;;;;;;4.38;1.20;;;19.10;41.80;18.00;102247.00;;;;5036387;28;20295;-70
2022/04/27 09:49:26;;;;;;;2.58;1.38;;;19.10;41.80;18.10;102243.00;;;;5021939;28;20037;-71
2022/04/27 09:52:14;;;;;;;2.65;1.05;;;19.10;41.80;18.00;102241.00;;;;5019630;28;20068;-71
2022/04/27 09:55:00;;;;;;;2.60;0.93;;;19.10;41.80;18.10;102243.00;;;;5010807;28;20037;-71
2022/04/27 09:57:46;;;;;;;2.00;1.10;;;19.10;41.80;18.10;102246.00;;;;5020370;28;20038;-70
2022/04/27 10:00:32;;;;;;;1.92;1.15;;;19.10;41.80;18.10;102260.00;;;;5005083;28;20048;-70
2022/04/27 10:03:19;;;;;;;2.40;0.90;;;19.10;41.70;18.10;102250.00;;;;5010284;28;20045;-70
2022/04/27 10:06:05;;;;;;;2.55;1.00;;;19.10;41.70;18.10;102248.00;;;;5022251;28;20482;-71
2022/04/27 10:08:51;;;;;;;2.50;1.15;;;19.10;41.60;18.10;102244.00;;;;5034432;28;20046;-71
2022/04/27 10:11:37;;;;;;;2.35;1.08;;;19.10;41.60;18.10;102250.00;;;;5008172;28;20064;-71
2022/04/27 10:14:27;;;;;;;2.67;1.20;;;19.10;41.60;18.10;102246.00;;;;5011497;28;20033;-70
2022/04/27 10:17:15;;;;;;;2.53;0.80;;;19.10;41.60;18.10;102241.00;;;;5037348;28;20040;-71
2022/04/27 10:20:01;;;;;;;1.30;1.10;;;19.10;41.60;18.10;102240.00;;;;5025704;28;20048;-70
2022/04/27 10:22:47;;;;;;;2.65;1.45;;;19.00;41.50;18.10;102229.00;;;;5009723;28;20103;-71
2022/04/27 10:25:36;;;;;;;3.50;1.20;;;19.20;41.60;18.10;102237.00;;;;5011678;28;20057;-70
2022/04/27 10:28:25;;;;;;;1.00;0.80;;;19.20;41.50;18.20;102233.00;;;;5020803;28;20141;-71
2022/04/27 10:31:11;;;;;;;1.52;1.10;;;19.10;41.40;18.20;102225.00;;;;5008251;28;20087;-71
2022/04/27 10:33:57;;;;;;;1.63;0.88;;;19.20;41.40;18.20;102226.00;;;;5020879;28;20034;-71
2022/04/27 10:36:47;;;;;;;1.25;0.90;;;19.10;41.30;18.20;102230.00;;;;5032266;28;20107;-71
2022/04/27 10:39:34;;;;;;;2.25;0.88;;;19.20;41.40;18.20;102229.00;;;;5019001;28;20486;-71
2022/04/27 10:42:20;;;;;;;2.33;1.00;;;19.30;41.40;18.20;102232.00;;;;5016417;28;20510;-71
2022/04/27 10:45:06;;;;;;;2.13;1.10;;;19.30;41.40;18.20;102232.00;;;;5033218;28;20119;-70
2022/04/27 10:47:52;;;;;;;2.67;0.90;;;19.20;41.30;18.20;102233.00;;;;5005323;28;20069;-71
2022/04/27 10:50:38;;;;;;;3.72;1.20;;;19.20;41.30;18.20;102233.00;;;;5031975;28;20477;-71
2022/04/27 10:53:26;;;;;;;2.60;0.95;;;19.30;41.30;18.20;102230.00;;;;5022699;28;20045;-71
2022/04/27 10:56:25;;;;;;;1.85;1.00;;;19.20;41.30;18.20;102237.00;;;;5022003;28;20048;-71
2022/04/27 10:59:51;;;;;;;2.67;1.02;;;19.20;41.20;18.20;102243.00;;;;5023416;28;20135;-71
2022/04/27 11:02:38;;;;;;;3.00;1.00;;;19.30;41.30;18.20;102239.00;;;;5029511;28;20048;-71
2022/04/27 11:05:24;;;;;;;1.55;1.10;;;19.30;41.20;18.20;102239.00;;;;5042349;28;20260;-71
2022/04/27 11:08:23;;;;;;;2.60;0.90;;;19.30;41.30;18.30;102225.00;;;;5034109;28;20049;-71
2022/04/27 11:11:09;;;;;;;1.38;0.80;;;19.30;41.20;18.30;102229.00;;;;5002432;28;20037;-71
2022/04/27 11:14:04;;;;;;;1.67;0.93;;;19.30;41.30;18.30;102228.00;;;;5038027;28;20044;-70
2022/04/27 11:16:50;;;;;;;2.53;1.15;;;19.30;41.20;18.30;102232.00;;;;5028683;28;20460;-70
2022/04/27 11:19:37;;;;;;;1.38;1.00;;;19.30;41.20;18.30;102229.00;;;;5033292;28;20407;-71
2022/04/27 11:22:23;;;;;;;1.17;0.82;;;19.30;41.20;18.30;102229.00;;;;5004856;28;20068;-71
2022/04/27 11:25:09;;;;;;;1.75;0.98;;;19.40;41.30;18.30;102230.00;;;;5034395;28;20423;-71
2022/04/27 11:27:56;;;;;;;1.83;1.00;;;19.30;41.20;18.30;102228.00;;;;5006633;28;20482;-71
2022/04/27 11:30:42;;;;;;;0.93;0.82;;;19.40;41.20;18.30;102225.00;;;;5033100;28;20033;-71
2022/04/27 11:33:28;;;;;;;2.15;1.15;;;19.40;41.90;18.30;102220.00;;;;5031353;28;20044;-71
2022/04/27 11:36:24;;;;;;;1.27;1.05;;;19.40;41.20;18.30;102222.00;;;;5045984;28;20044;-71
2022/04/27 11:39:23;;;;;;;4.32;1.13;;;19.40;41.10;18.30;102217.00;;;;5036671;28;20051;-71
2022/04/27 11:42:12;;;;;;;;;;;19.40;41.10;18.30;102222.00;;;;5011150;28;20045;-71
2022/04/27 11:45:00;;;;;;;4.32;1.33;;;19.40;41.40;18.30;102224.00;;;;5033132;28;19917;-71
2022/04/27 11:48:01;;;;;;;3.63;1.38;;;19.50;41.00;18.30;102220.00;;;;5033329;28;20574;-71
2022/04/27 11:50:48;;;;;;;2.03;1.00;;;19.40;40.90;18.40;102208.00;;;;5029569;28;20661;-71
2022/04/27 11:53:49;;;;;;;2.67;0.98;;;19.50;41.00;18.30;102207.00;;;;5022421;28;20128;-71
2022/04/27 11:56:37;;;;;;;1.83;0.80;;;19.50;41.00;18.40;102204.00;;;;5035652;28;20036;-71
2022/04/27 11:59:23;;;;;;;2.47;0.82;;;19.50;41.00;18.40;102204.00;;;;5023943;28;20047;-71
2022/04/27 12:02:10;;;;;;;4.15;1.10;;;19.50;41.00;18.40;102207.00;;;;5035827;28;20099;-71
2022/04/27 12:04:59;;;;;;;1.73;1.00;;;19.50;41.00;18.40;102214.00;;;;5014489;28;20043;-71
2022/04/27 12:07:49;;;;;;;2.15;1.10;;;19.50;40.90;18.40;102208.00;;;;5020890;28;20047;-71
2022/04/27 12:10:45;;;;;;;1.42;1.02;;;19.50;40.90;18.40;102207.00;;;;5024282;28;20037;-71
2022/04/27 12:13:31;;;;;;;3.03;1.08;;;19.50;40.90;18.40;102214.00;;;;5024294;28;20033;-71
2022/04/27 12:16:17;;;;;;;2.05;1.02;;;19.60;40.90;18.40;102208.00;;;;5004821;28;20052;-71
2022/04/27 12:19:03;;;;;;;1.55;1.10;;;19.60;41.00;18.40;102208.00;;;;5020532;28;20029;-71
2022/04/27 12:21:49;;;;;;;0.95;0.77;;;19.60;40.90;18.50;102207.00;;;;5030883;28;20041;-71
2022/04/27 12:24:43;;;;;;;1.10;0.90;;;19.60;40.90;18.50;102202.00;;;;5038976;28;20045;-71
2022/04/27 12:27:29;;;;;;;2.30;0.98;;;19.60;40.80;18.50;102201.00;;;;5017672;28;20041;-71
2022/04/27 12:30:21;;;;;;;2.83;0.98;;;19.60;40.90;18.50;102203.00;;;;5007410;28;20387;-71